sensor_id;sensor_type;location;lat;lon;timestamp;pressure;altitude;pressure_sealevel;temperature;humidity
84316;BME280;74496;52.236;5.164;2024-01-15T00:00:51;100296.38;;;3.66;75.73
84316;BME280;74496;52.236;5.164;2024-01-15T00:03:18;100281.03;;;3.62;75.93
84316;BME280;74496;52.236;5.164;2024-01-15T00:05:46;100281.16;;;3.60;76.30
84316;BME280;74496;52.236;5.164;2024-01-15T00:08:13;100274.38;;;3.58;75.56
84316;BME280;74496;52.236;5.164;2024-01-15T00:10:39;100271.34;;;3.51;75.80
84316;BME280;74496;52.236;5.164;2024-01-15T00:13:06;100272.91;;;3.53;75.94
84316;BME280;74496;52.236;5.164;2024-01-15T00:15:33;100270.00;;;3.45;75.85
84316;BME280;74496;52.236;5.164;2024-01-15T00:18:00;100267.50;;;3.44;75.75
84316;BME280;74496;52.236;5.164;2024-01-15T00:20:26;100257.41;;;3.39;75.63
84316;BME280;74496;52.236;5.164;2024-01-15T00:22:54;100259.38;;;3.36;76.04
84316;BME280;74496;52.236;5.164;2024-01-15T00:25:21;100249.16;;;3.33;76.09
84316;BME280;74496;52.236;5.164;2024-01-15T00:27:48;100246.44;;;3.34;75.83
84316;BME280;74496;52.236;5.164;2024-01-15T00:30:15;100244.44;;;3.38;75.76
84316;BME280;74496;52.236;5.164;2024-01-15T00:32:41;100255.00;;;3.36;75.64
84316;BME280;74496;52.236;5.164;2024-01-15T00:35:08;100246.22;;;3.37;75.36
84316;BME280;74496;52.236;5.164;2024-01-15T00:37:35;100247.59;;;3.43;75.36
84316;BME280;74496;52.236;5.164;2024-01-15T00:40:04;100247.59;;;3.43;75.62
84316;BME280;74496;52.236;5.164;2024-01-15T00:42:33;100247.88;;;3.38;75.59
84316;BME280;74496;52.236;5.164;2024-01-15T00:44:59;100244.88;;;3.44;75.07
84316;BME280;74496;52.236;5.164;2024-01-15T00:47:26;100249.38;;;3.42;75.11
84316;BME280;74496;52.236;5.164;2024-01-15T00:49:53;100245.19;;;3.40;75.50
84316;BME280;74496;52.236;5.164;2024-01-15T00:52:19;100234.16;;;3.36;75.54
84316;BME280;74496;52.236;5.164;2024-01-15T00:54:46;100240.19;;;3.37;75.28
84316;BME280;74496;52.236;5.164;2024-01-15T00:57:14;100231.00;;;3.31;75.54
84316;BME280;74496;52.236;5.164;2024-01-15T00:59:41;100224.63;;;3.35;75.39
84316;BME280;74496;52.236;5.164;2024-01-15T01:02:07;100226.13;;;3.39;74.20
84316;BME280;74496;52.236;5.164;2024-01-15T01:04:34;100232.16;;;3.40;74.98
84316;BME280;74496;52.236;5.164;2024-01-15T01:07:00;100230.59;;;3.37;75.80
84316;BME280;74496;52.236;5.164;2024-01-15T01:09:27;100231.53;;;3.36;76.11
84316;BME280;74496;52.236;5.164;2024-01-15T01:11:55;100233.81;;;3.41;76.43
84316;BME280;74496;52.236;5.164;2024-01-15T01:14:23;100238.53;;;3.36;76.63
84316;BME280;74496;52.236;5.164;2024-01-15T01:16:50;100222.56;;;3.40;76.12
84316;BME280;74496;52.236;5.164;2024-01-15T01:19:16;100232.25;;;3.38;76.58
84316;BME280;74496;52.236;5.164;2024-01-15T01:21:43;100227.88;;;3.39;76.43
84316;BME280;74496;52.236;5.164;2024-01-15T01:24:10;100226.00;;;3.41;76.59
84316;BME280;74496;52.236;5.164;2024-01-15T01:26:37;100228.81;;;3.38;76.50
84316;BME280;74496;52.236;5.164;2024-01-15T01:29:03;100222.03;;;3.35;76.39
84316;BME280;74496;52.236;5.164;2024-01-15T01:31:31;100215.16;;;3.34;76.89
84316;BME280;74496;52.236;5.164;2024-01-15T01:33:58;100217.88;;;3.33;77.37
84316;BME280;74496;52.236;5.164;2024-01-15T01:36:25;100214.31;;;3.34;76.81
84316;BME280;74496;52.236;5.164;2024-01-15T01:38:52;100214.00;;;3.38;76.88
84316;BME280;74496;52.236;5.164;2024-01-15T01:41:18;100204.50;;;3.50;76.56
84316;BME280;74496;52.236;5.164;2024-01-15T01:43:45;100207.78;;;3.65;75.92
84316;BME280;74496;52.236;5.164;2024-01-15T01:46:12;100221.56;;;3.67;76.50
84316;BME280;74496;52.236;5.164;2024-01-15T01:48:40;100216.88;;;3.72;76.83
84316;BME280;74496;52.236;5.164;2024-01-15T01:51:07;100233.53;;;3.82;75.77
84316;BME280;74496;52.236;5.164;2024-01-15T01:53:34;100234.84;;;3.88;75.74
84316;BME280;74496;52.236;5.164;2024-01-15T01:56:03;100228.72;;;3.89;75.56
84316;BME280;74496;52.236;5.164;2024-01-15T01:58:32;100231.09;;;3.92;76.20
84316;BME280;74496;52.236;5.164;2024-01-15T02:00:59;100240.84;;;4.01;76.02
84316;BME280;74496;52.236;5.164;2024-01-15T02:03:27;100236.16;;;4.06;76.11
84316;BME280;74496;52.236;5.164;2024-01-15T02:05:55;100236.16;;;4.06;76.35
84316;BME280;74496;52.236;5.164;2024-01-15T02:08:22;100227.16;;;4.10;76.46
84316;BME280;74496;52.236;5.164;2024-01-15T02:10:49;100221.53;;;4.28;75.58
84316;BME280;74496;52.236;5.164;2024-01-15T02:13:17;100218.16;;;4.14;76.14
84316;BME280;74496;52.236;5.164;2024-01-15T02:15:44;100224.06;;;4.05;76.69
84316;BME280;74496;52.236;5.164;2024-01-15T02:18:10;100224.97;;;4.04;76.47
84316;BME280;74496;52.236;5.164;2024-01-15T02:20:39;100212.66;;;4.06;76.35
84316;BME280;74496;52.236;5.164;2024-01-15T02:23:11;100215.16;;;4.08;76.05
84316;BME280;74496;52.236;5.164;2024-01-15T02:25:40;100218.66;;;3.95;76.86
84316;BME280;74496;52.236;5.164;2024-01-15T02:28:09;100202.00;;;4.09;76.37
84316;BME280;74496;52.236;5.164;2024-01-15T02:30:37;100208.28;;;4.07;76.28
84316;BME280;74496;52.236;5.164;2024-01-15T02:33:05;100213.94;;;4.00;76.76
84316;BME280;74496;52.236;5.164;2024-01-15T02:35:32;100208.72;;;4.00;76.83
84316;BME280;74496;52.236;5.164;2024-01-15T02:38:02;100208.63;;;4.02;77.20
84316;BME280;74496;52.236;5.164;2024-01-15T02:40:30;100207.66;;;4.03;77.00
84316;BME280;74496;52.236;5.164;2024-01-15T02:42:58;100205.28;;;4.00;77.32
84316;BME280;74496;52.236;5.164;2024-01-15T02:45:24;100204.09;;;4.04;77.09
84316;BME280;74496;52.236;5.164;2024-01-15T02:47:51;100203.50;;;4.00;76.92
84316;BME280;74496;52.236;5.164;2024-01-15T02:50:18;100203.78;;;4.09;76.51
84316;BME280;74496;52.236;5.164;2024-01-15T02:52:44;100198.06;;;4.04;77.14
84316;BME280;74496;52.236;5.164;2024-01-15T02:55:11;100204.94;;;4.05;76.54
84316;BME280;74496;52.236;5.164;2024-01-15T02:57:39;100205.88;;;4.04;76.36
84316;BME280;74496;52.236;5.164;2024-01-15T03:00:07;100201.50;;;4.04;76.48
84316;BME280;74496;52.236;5.164;2024-01-15T03:02:38;100194.63;;;4.03;76.52
84316;BME280;74496;52.236;5.164;2024-01-15T03:05:06;100192.13;;;4.02;76.31
84316;BME280;74496;52.236;5.164;2024-01-15T03:07:33;100192.34;;;3.98;76.43
84316;BME280;74496;52.236;5.164;2024-01-15T03:10:00;100191.84;;;3.93;76.48
84316;BME280;74496;52.236;5.164;2024-01-15T03:12:27;100197.19;;;3.92;76.55
84316;BME280;74496;52.236;5.164;2024-01-15T03:14:57;100207.94;;;3.87;76.79
84316;BME280;74496;52.236;5.164;2024-01-15T03:17:24;100201.06;;;3.86;77.02
84316;BME280;74496;52.236;5.164;2024-01-15T03:19:51;100213.38;;;3.84;76.97
84316;BME280;74496;52.236;5.164;2024-01-15T03:22:17;100222.97;;;3.84;77.47
84316;BME280;74496;52.236;5.164;2024-01-15T03:24:44;100218.09;;;3.79;77.74
84316;BME280;74496;52.236;5.164;2024-01-15T03:27:11;100217.34;;;3.77;77.18
84316;BME280;74496;52.236;5.164;2024-01-15T03:29:39;100214.47;;;3.69;77.95
84316;BME280;74496;52.236;5.164;2024-01-15T03:32:07;100206.75;;;3.67;77.64
84316;BME280;74496;52.236;5.164;2024-01-15T03:34:33;100195.69;;;3.64;77.57
84316;BME280;74496;52.236;5.164;2024-01-15T03:37:00;100193.66;;;3.56;77.51
84316;BME280;74496;52.236;5.164;2024-01-15T03:39:27;100190.91;;;3.58;77.41
84316;BME280;74496;52.236;5.164;2024-01-15T03:41:53;100184.13;;;3.55;77.19
84316;BME280;74496;52.236;5.164;2024-01-15T03:44:20;100173.22;;;3.50;77.41
84316;BME280;74496;52.236;5.164;2024-01-15T03:46:47;100173.09;;;3.51;77.41
84316;BME280;74496;52.236;5.164;2024-01-15T03:49:15;100175.69;;;3.51;77.53
84316;BME280;74496;52.236;5.164;2024-01-15T03:51:41;100175.28;;;3.45;77.43
84316;BME280;74496;52.236;5.164;2024-01-15T03:54:08;100173.97;;;3.39;77.55
84316;BME280;74496;52.236;5.164;2024-01-15T03:56:35;100161.16;;;3.36;77.18
84316;BME280;74496;52.236;5.164;2024-01-15T03:59:01;100159.78;;;3.31;77.70
84316;BME280;74496;52.236;5.164;2024-01-15T04:01:28;100161.66;;;3.28;77.64
84316;BME280;74496;52.236;5.164;2024-01-15T04:03:55;100160.00;;;3.27;77.40
84316;BME280;74496;52.236;5.164;2024-01-15T04:06:23;100160.84;;;3.28;77.45
84316;BME280;74496;52.236;5.164;2024-01-15T04:08:50;100157.00;;;3.21;77.07
84316;BME280;74496;52.236;5.164;2024-01-15T04:11:17;100155.66;;;3.15;77.73
84316;BME280;74496;52.236;5.164;2024-01-15T04:13:43;100151.16;;;3.17;77.88
84316;BME280;74496;52.236;5.164;2024-01-15T04:16:10;100144.72;;;3.10;77.65
84316;BME280;74496;52.236;5.164;2024-01-15T04:18:37;100150.63;;;3.12;77.89
84316;BME280;74496;52.236;5.164;2024-01-15T04:21:04;100152.75;;;3.07;78.26
84316;BME280;74496;52.236;5.164;2024-01-15T04:23:33;100148.50;;;3.06;78.39
84316;BME280;74496;52.236;5.164;2024-01-15T04:26:00;100147.22;;;3.12;78.31
84316;BME280;74496;52.236;5.164;2024-01-15T04:28:27;100140.22;;;3.12;78.61
84316;BME280;74496;52.236;5.164;2024-01-15T04:30:54;100144.19;;;3.18;78.41
84316;BME280;74496;52.236;5.164;2024-01-15T04:33:20;100149.19;;;3.21;78.51
84316;BME280;74496;52.236;5.164;2024-01-15T04:35:47;100152.06;;;3.29;78.39
84316;BME280;74496;52.236;5.164;2024-01-15T04:38:14;100148.31;;;3.33;78.24
84316;BME280;74496;52.236;5.164;2024-01-15T04:40:42;100149.78;;;3.37;77.94
84316;BME280;74496;52.236;5.164;2024-01-15T04:43:09;100150.69;;;3.49;77.44
84316;BME280;74496;52.236;5.164;2024-01-15T04:45:36;100143.75;;;3.61;77.06
84316;BME280;74496;52.236;5.164;2024-01-15T04:48:03;100143.06;;;3.59;77.02
84316;BME280;74496;52.236;5.164;2024-01-15T04:50:30;100129.38;;;3.55;77.31
84316;BME280;74496;52.236;5.164;2024-01-15T04:52:57;100132.72;;;3.57;77.75
84316;BME280;74496;52.236;5.164;2024-01-15T04:55:24;100122.19;;;3.59;77.39
84316;BME280;74496;52.236;5.164;2024-01-15T04:57:51;100119.31;;;3.62;77.10
84316;BME280;74496;52.236;5.164;2024-01-15T05:00:18;100123.72;;;3.61;77.21
84316;BME280;74496;52.236;5.164;2024-01-15T05:02:45;100130.84;;;3.59;77.36
84316;BME280;74496;52.236;5.164;2024-01-15T05:05:12;100126.22;;;3.63;77.50
84316;BME280;74496;52.236;5.164;2024-01-15T05:07:38;100119.31;;;3.62;77.42
84316;BME280;74496;52.236;5.164;2024-01-15T05:10:06;100127.66;;;3.67;77.30
84316;BME280;74496;52.236;5.164;2024-01-15T05:12:34;100119.97;;;3.65;77.32
84316;BME280;74496;52.236;5.164;2024-01-15T05:15:03;100122.56;;;3.65;77.00
84316;BME280;74496;52.236;5.164;2024-01-15T05:17:29;100108.47;;;3.68;77.45
84316;BME280;74496;52.236;5.164;2024-01-15T05:19:56;100120.06;;;3.64;77.34
84316;BME280;74496;52.236;5.164;2024-01-15T05:22:23;100119.09;;;3.65;77.32
84316;BME280;74496;52.236;5.164;2024-01-15T05:24:50;100123.41;;;3.66;77.65
84316;BME280;74496;52.236;5.164;2024-01-15T05:27:17;100127.44;;;3.70;77.85
84316;BME280;74496;52.236;5.164;2024-01-15T05:29:44;100124.84;;;3.70;77.58
84316;BME280;74496;52.236;5.164;2024-01-15T05:32:12;100121.19;;;3.72;77.51
84316;BME280;74496;52.236;5.164;2024-01-15T05:34:39;100125.06;;;3.67;77.53
84316;BME280;74496;52.236;5.164;2024-01-15T05:37:04;100121.94;;;3.62;77.92
84316;BME280;74496;52.236;5.164;2024-01-15T05:39:31;100120.50;;;3.58;78.16
84316;BME280;74496;52.236;5.164;2024-01-15T05:41:58;100130.31;;;3.54;78.80
84316;BME280;74496;52.236;5.164;2024-01-15T05:44:25;100144.31;;;3.53;78.44
84316;BME280;74496;52.236;5.164;2024-01-15T05:46:52;100153.91;;;3.52;79.13
84316;BME280;74496;52.236;5.164;2024-01-15T05:49:20;100153.91;;;3.52;78.70
84316;BME280;74496;52.236;5.164;2024-01-15T05:51:47;100138.34;;;3.51;78.99
84316;BME280;74496;52.236;5.164;2024-01-15T05:54:14;100147.84;;;3.52;78.44
84316;BME280;74496;52.236;5.164;2024-01-15T05:56:40;100128.22;;;3.59;78.09
84316;BME280;74496;52.236;5.164;2024-01-15T05:59:07;100131.88;;;3.57;77.13
84316;BME280;74496;52.236;5.164;2024-01-15T06:01:34;100130.22;;;3.56;77.26
84316;BME280;74496;52.236;5.164;2024-01-15T06:04:00;100124.38;;;3.52;78.04
84316;BME280;74496;52.236;5.164;2024-01-15T06:06:28;100110.72;;;3.48;77.93
84316;BME280;74496;52.236;5.164;2024-01-15T06:08:56;100105.84;;;3.44;76.91
84316;BME280;74496;52.236;5.164;2024-01-15T06:11:29;100116.84;;;3.36;78.27
84316;BME280;74496;52.236;5.164;2024-01-15T06:13:56;100122.88;;;3.37;78.51
84316;BME280;74496;52.236;5.164;2024-01-15T06:16:23;100120.97;;;3.39;78.16
84316;BME280;74496;52.236;5.164;2024-01-15T06:18:50;100120.16;;;3.38;77.92
84316;BME280;74496;52.236;5.164;2024-01-15T06:21:17;100107.31;;;3.35;78.25
84316;BME280;74496;52.236;5.164;2024-01-15T06:23:45;100115.16;;;3.35;78.06
84316;BME280;74496;52.236;5.164;2024-01-15T06:26:12;100103.69;;;3.38;78.64
84316;BME280;74496;52.236;5.164;2024-01-15T06:28:38;100101.81;;;3.40;78.09
84316;BME280;74496;52.236;5.164;2024-01-15T06:31:06;100099.72;;;3.32;78.07
84316;BME280;74496;52.236;5.164;2024-01-15T06:33:36;100099.06;;;3.41;78.23
84316;BME280;74496;52.236;5.164;2024-01-15T06:36:04;100098.59;;;3.36;78.01
84316;BME280;74496;52.236;5.164;2024-01-15T06:38:30;100101.28;;;3.35;78.32
84316;BME280;74496;52.236;5.164;2024-01-15T06:40:58;100106.50;;;3.35;77.83
84316;BME280;74496;52.236;5.164;2024-01-15T06:43:25;100094.41;;;3.34;77.92
84316;BME280;74496;52.236;5.164;2024-01-15T06:45:52;100093.06;;;3.28;78.32
84316;BME280;74496;52.236;5.164;2024-01-15T06:48:20;100094.72;;;3.29;78.28
84316;BME280;74496;52.236;5.164;2024-01-15T06:50:47;100100.47;;;3.34;78.04
84316;BME280;74496;52.236;5.164;2024-01-15T06:53:13;100111.44;;;3.26;78.75
84316;BME280;74496;52.236;5.164;2024-01-15T06:55:40;100130.31;;;3.17;78.45
84316;BME280;74496;52.236;5.164;2024-01-15T06:58:08;100133.34;;;3.11;78.70
84316;BME280;74496;52.236;5.164;2024-01-15T07:00:35;100141.13;;;3.37;78.14
84316;BME280;74496;52.236;5.164;2024-01-15T07:03:03;100133.00;;;3.28;78.60
84316;BME280;74496;52.236;5.164;2024-01-15T07:05:32;100121.44;;;3.33;77.97
84316;BME280;74496;52.236;5.164;2024-01-15T07:07:59;100118.66;;;3.23;78.11
84316;BME280;74496;52.236;5.164;2024-01-15T07:10:26;100118.72;;;3.21;78.35
84316;BME280;74496;52.236;5.164;2024-01-15T07:12:52;100120.28;;;3.24;78.65
84316;BME280;74496;52.236;5.164;2024-01-15T07:15:21;100114.75;;;3.28;78.60
84316;BME280;74496;52.236;5.164;2024-01-15T07:17:48;100126.84;;;3.29;78.42
84316;BME280;74496;52.236;5.164;2024-01-15T07:20:15;100127.06;;;3.26;78.18
84316;BME280;74496;52.236;5.164;2024-01-15T07:22:42;100114.75;;;3.28;78.28
84316;BME280;74496;52.236;5.164;2024-01-15T07:25:09;100107.25;;;3.24;78.17
84316;BME280;74496;52.236;5.164;2024-01-15T07:27:36;100107.34;;;3.22;79.29
84316;BME280;74496;52.236;5.164;2024-01-15T07:30:03;100113.31;;;3.24;78.40
84316;BME280;74496;52.236;5.164;2024-01-15T07:32:33;100128.59;;;3.29;78.61
84316;BME280;74496;52.236;5.164;2024-01-15T07:34:59;100125.91;;;3.31;78.87
84316;BME280;74496;52.236;5.164;2024-01-15T07:37:26;100120.56;;;3.32;78.45
84316;BME280;74496;52.236;5.164;2024-01-15T07:39:53;100121.44;;;3.33;77.58
84316;BME280;74496;52.236;5.164;2024-01-15T07:42:20;100111.84;;;3.33;77.83
84316;BME280;74496;52.236;5.164;2024-01-15T07:44:47;100104.84;;;3.34;78.02
84316;BME280;74496;52.236;5.164;2024-01-15T07:47:13;100104.00;;;3.33;78.12
84316;BME280;74496;52.236;5.164;2024-01-15T07:49:41;100097.97;;;3.33;78.26
84316;BME280;74496;52.236;5.164;2024-01-15T07:52:08;100107.66;;;3.31;78.32
84316;BME280;74496;52.236;5.164;2024-01-15T07:54:35;100098.91;;;3.32;78.32
84316;BME280;74496;52.236;5.164;2024-01-15T07:57:02;100111.22;;;3.29;78.13
84316;BME280;74496;52.236;5.164;2024-01-15T07:59:30;100106.44;;;3.23;78.40
84316;BME280;74496;52.236;5.164;2024-01-15T08:01:59;100105.59;;;3.23;78.95
84316;BME280;74496;52.236;5.164;2024-01-15T08:04:26;100105.69;;;3.21;78.33
84316;BME280;74496;52.236;5.164;2024-01-15T08:06:54;100106.88;;;3.17;77.98
84316;BME280;74496;52.236;5.164;2024-01-15T08:09:22;100105.69;;;3.21;78.35
84316;BME280;74496;52.236;5.164;2024-01-15T08:11:49;100128.59;;;3.29;78.42
84316;BME280;74496;52.236;5.164;2024-01-15T08:14:17;100138.81;;;3.32;78.60
84316;BME280;74496;52.236;5.164;2024-01-15T08:16:44;100162.94;;;3.36;78.35
84316;BME280;74496;52.236;5.164;2024-01-15T08:19:11;100138.91;;;3.43;77.42
84316;BME280;74496;52.236;5.164;2024-01-15T08:21:38;100140.38;;;3.35;77.88
84316;BME280;74496;52.236;5.164;2024-01-15T08:24:06;100123.44;;;3.53;76.71
84316;BME280;74496;52.236;5.164;2024-01-15T08:26:33;100122.25;;;3.33;77.69
84316;BME280;74496;52.236;5.164;2024-01-15T08:29:00;100122.69;;;3.27;77.54
84316;BME280;74496;52.236;5.164;2024-01-15T08:31:26;100113.91;;;3.28;77.86
84316;BME280;74496;52.236;5.164;2024-01-15T08:33:53;100111.22;;;3.29;78.20
84316;BME280;74496;52.236;5.164;2024-01-15T08:36:21;100099.50;;;3.35;77.76
84316;BME280;74496;52.236;5.164;2024-01-15T08:38:48;100107.00;;;3.40;78.39
84316;BME280;74496;52.236;5.164;2024-01-15T08:41:16;100101.06;;;3.38;78.14
84316;BME280;74496;52.236;5.164;2024-01-15T08:43:42;100111.06;;;3.44;77.98
84316;BME280;74496;52.236;5.164;2024-01-15T08:46:09;100109.28;;;3.44;77.97
84316;BME280;74496;52.236;5.164;2024-01-15T08:48:36;100118.75;;;3.45;77.79
84316;BME280;74496;52.236;5.164;2024-01-15T08:51:03;100121.75;;;3.52;77.98
84316;BME280;74496;52.236;5.164;2024-01-15T08:53:29;100125.97;;;3.42;78.09
84316;BME280;74496;52.236;5.164;2024-01-15T08:55:56;100126.88;;;3.53;77.66
84316;BME280;74496;52.236;5.164;2024-01-15T08:58:24;100116.41;;;3.42;77.50
84316;BME280;74496;52.236;5.164;2024-01-15T09:00:51;100113.84;;;3.53;77.39
84316;BME280;74496;52.236;5.164;2024-01-15T09:03:17;100114.38;;;3.59;77.06
84316;BME280;74496;52.236;5.164;2024-01-15T09:05:44;100117.44;;;3.64;76.90
84316;BME280;74496;52.236;5.164;2024-01-15T09:08:11;100106.28;;;3.62;76.98
84316;BME280;74496;52.236;5.164;2024-01-15T09:10:38;100109.59;;;3.52;76.70
84316;BME280;74496;52.236;5.164;2024-01-15T09:13:04;100113.31;;;3.48;77.36
84316;BME280;74496;52.236;5.164;2024-01-15T09:15:32;100115.72;;;3.51;77.04
84316;BME280;74496;52.236;5.164;2024-01-15T09:17:59;100105.50;;;3.48;77.00
84316;BME280;74496;52.236;5.164;2024-01-15T09:20:27;100108.72;;;3.52;77.75
84316;BME280;74496;52.236;5.164;2024-01-15T09:22:54;100108.41;;;3.57;77.50
84316;BME280;74496;52.236;5.164;2024-01-15T09:25:21;100111.13;;;3.55;77.75
84316;BME280;74496;52.236;5.164;2024-01-15T09:27:47;100120.88;;;3.64;77.78
84316;BME280;74496;52.236;5.164;2024-01-15T09:30:14;100118.06;;;3.67;77.56
84316;BME280;74496;52.236;5.164;2024-01-15T09:32:43;100120.56;;;3.69;77.64
84316;BME280;74496;52.236;5.164;2024-01-15T09:35:10;100113.06;;;3.64;77.55
84316;BME280;74496;52.236;5.164;2024-01-15T09:37:39;100117.75;;;3.72;77.59
84316;BME280;74496;52.236;5.164;2024-01-15T09:40:07;100119.41;;;3.73;77.08
84316;BME280;74496;52.236;5.164;2024-01-15T09:42:35;100115.56;;;3.66;77.37
84316;BME280;74496;52.236;5.164;2024-01-15T09:45:02;100115.88;;;3.61;77.27
84316;BME280;74496;52.236;5.164;2024-01-15T09:47:30;100115.88;;;3.61;77.48
84316;BME280;74496;52.236;5.164;2024-01-15T09:49:58;100118.63;;;3.60;77.81
84316;BME280;74496;52.236;5.164;2024-01-15T09:52:25;100120.56;;;3.69;77.92
84316;BME280;74496;52.236;5.164;2024-01-15T09:54:52;100119.00;;;3.66;78.65
84316;BME280;74496;52.236;5.164;2024-01-15T09:57:18;100121.19;;;3.72;78.57
84316;BME280;74496;52.236;5.164;2024-01-15T09:59:45;100123.22;;;3.80;77.66
84316;BME280;74496;52.236;5.164;2024-01-15T10:02:14;100121.34;;;3.82;78.25
84316;BME280;74496;52.236;5.164;2024-01-15T10:04:44;100122.34;;;3.92;78.30
84316;BME280;74496;52.236;5.164;2024-01-15T10:07:15;100134.00;;;3.99;78.28
84316;BME280;74496;52.236;5.164;2024-01-15T10:09:44;100146.16;;;4.12;77.98
84316;BME280;74496;52.236;5.164;2024-01-15T10:12:11;100151.47;;;4.10;76.86
84316;BME280;74496;52.236;5.164;2024-01-15T10:14:38;100155.97;;;4.08;77.11
84316;BME280;74496;52.236;5.164;2024-01-15T10:17:12;100150.38;;;4.02;77.45
84316;BME280;74496;52.236;5.164;2024-01-15T10:19:38;100146.81;;;4.03;76.87
84316;BME280;74496;52.236;5.164;2024-01-15T10:22:07;100148.47;;;4.04;76.40
84316;BME280;74496;52.236;5.164;2024-01-15T10:24:36;100135.53;;;4.02;76.50
84316;BME280;74496;52.236;5.164;2024-01-15T10:27:06;100143.69;;;3.97;76.93
84316;BME280;74496;52.236;5.164;2024-01-15T10:29:33;100133.63;;;4.04;77.74
84316;BME280;74496;52.236;5.164;2024-01-15T10:32:00;100142.06;;;4.08;77.09
84316;BME280;74496;52.236;5.164;2024-01-15T10:34:28;100144.13;;;4.15;77.13
84316;BME280;74496;52.236;5.164;2024-01-15T10:36:54;100138.41;;;4.10;77.30
84316;BME280;74496;52.236;5.164;2024-01-15T10:39:21;100144.13;;;4.15;77.50
84316;BME280;74496;52.236;5.164;2024-01-15T10:41:50;100143.78;;;4.20;76.70
84316;BME280;74496;52.236;5.164;2024-01-15T10:44:17;100145.03;;;4.38;75.89
84316;BME280;74496;52.236;5.164;2024-01-15T10:46:44;100155.94;;;4.32;76.27
84316;BME280;74496;52.236;5.164;2024-01-15T10:49:12;100154.69;;;4.49;75.85
84316;BME280;74496;52.236;5.164;2024-01-15T10:51:39;100172.72;;;4.52;75.04
84316;BME280;74496;52.236;5.164;2024-01-15T10:54:09;100171.53;;;4.56;74.86
84316;BME280;74496;52.236;5.164;2024-01-15T10:56:37;100168.09;;;4.56;74.45
84316;BME280;74496;52.236;5.164;2024-01-15T10:59:05;100174.16;;;4.56;74.31
84316;BME280;74496;52.236;5.164;2024-01-15T11:01:33;100178.84;;;4.40;74.84
84316;BME280;74496;52.236;5.164;2024-01-15T11:04:00;100178.16;;;4.38;75.56
84316;BME280;74496;52.236;5.164;2024-01-15T11:06:28;100179.09;;;4.37;75.02
84316;BME280;74496;52.236;5.164;2024-01-15T11:08:55;100179.81;;;4.39;74.43
84316;BME280;74496;52.236;5.164;2024-01-15T11:11:22;100181.22;;;4.32;74.54
84316;BME280;74496;52.236;5.164;2024-01-15T11:13:48;100175.66;;;4.36;75.52
84316;BME280;74496;52.236;5.164;2024-01-15T11:16:18;100167.72;;;4.38;75.30
84316;BME280;74496;52.236;5.164;2024-01-15T11:19:02;100173.19;;;4.46;74.16
84316;BME280;74496;52.236;5.164;2024-01-15T11:21:31;100177.66;;;4.33;75.23
84316;BME280;74496;52.236;5.164;2024-01-15T11:23:59;100161.41;;;4.40;74.97
84316;BME280;74496;52.236;5.164;2024-01-15T11:26:34;100156.75;;;4.33;75.31
84316;BME280;74496;52.236;5.164;2024-01-15T11:29:02;100159.41;;;4.44;74.41
84316;BME280;74496;52.236;5.164;2024-01-15T11:31:56;100178.84;;;4.29;75.69
84316;BME280;74496;52.236;5.164;2024-01-15T11:34:51;100175.84;;;4.22;75.73
84316;BME280;74496;52.236;5.164;2024-01-15T11:37:18;100185.63;;;4.31;75.71
84316;BME280;74496;52.236;5.164;2024-01-15T11:39:45;100180.03;;;4.36;75.77
84316;BME280;74496;52.236;5.164;2024-01-15T11:42:13;100185.13;;;4.37;75.44
84316;BME280;74496;52.236;5.164;2024-01-15T11:44:41;100183.72;;;4.33;75.18
84316;BME280;74496;52.236;5.164;2024-01-15T11:47:10;100183.16;;;4.41;76.49
84316;BME280;74496;52.236;5.164;2024-01-15T11:50:02;100190.63;;;4.45;76.54
84316;BME280;74496;52.236;5.164;2024-01-15T11:52:34;100185.94;;;4.62;75.48
84316;BME280;74496;52.236;5.164;2024-01-15T11:55:04;100186.56;;;4.88;75.37
84316;BME280;74496;52.236;5.164;2024-01-15T11:57:40;100188.72;;;4.94;74.89
84316;BME280;74496;52.236;5.164;2024-01-15T12:00:09;100184.94;;;5.21;73.53
84316;BME280;74496;52.236;5.164;2024-01-15T12:02:42;100183.75;;;5.13;73.38
84316;BME280;74496;52.236;5.164;2024-01-15T12:05:09;100186.09;;;5.39;73.54
84316;BME280;74496;52.236;5.164;2024-01-15T12:07:39;100186.81;;;5.52;73.54
84316;BME280;74496;52.236;5.164;2024-01-15T12:10:09;100188.19;;;5.79;73.27
84316;BME280;74496;52.236;5.164;2024-01-15T12:12:50;100194.47;;;5.87;71.18
84316;BME280;74496;52.236;5.164;2024-01-15T12:15:20;100193.41;;;6.01;71.04
84316;BME280;74496;52.236;5.164;2024-01-15T12:17:48;100189.22;;;5.99;71.53
84316;BME280;74496;52.236;5.164;2024-01-15T12:20:15;100219.69;;;5.88;71.85
84316;BME280;74496;52.236;5.164;2024-01-15T12:22:43;100254.56;;;5.89;71.33
84316;BME280;74496;52.236;5.164;2024-01-15T12:25:11;100245.91;;;5.77;69.46
84316;BME280;74496;52.236;5.164;2024-01-15T12:27:38;100230.09;;;5.56;70.28
84316;BME280;74496;52.236;5.164;2024-01-15T12:30:05;100226.19;;;5.28;70.09
84316;BME280;74496;52.236;5.164;2024-01-15T12:32:34;100244.00;;;5.12;70.04
84316;BME280;74496;52.236;5.164;2024-01-15T12:35:03;100223.91;;;5.01;71.11
84316;BME280;74496;52.236;5.164;2024-01-15T12:37:30;100226.09;;;4.83;71.56
84316;BME280;74496;52.236;5.164;2024-01-15T12:39:58;100230.38;;;4.73;72.48
84316;BME280;74496;52.236;5.164;2024-01-15T12:42:25;100214.81;;;4.72;72.25
84316;BME280;74496;52.236;5.164;2024-01-15T12:44:52;100218.25;;;4.61;73.06
84316;BME280;74496;52.236;5.164;2024-01-15T12:47:21;100225.22;;;4.60;72.05
84316;BME280;74496;52.236;5.164;2024-01-15T12:49:48;100225.31;;;4.47;74.39
84316;BME280;74496;52.236;5.164;2024-01-15T12:52:20;100239.53;;;4.43;73.90
84316;BME280;74496;52.236;5.164;2024-01-15T12:54:47;100231.31;;;4.37;74.34
84316;BME280;74496;52.236;5.164;2024-01-15T12:57:14;100241.06;;;4.35;74.60
84316;BME280;74496;52.236;5.164;2024-01-15T12:59:41;100243.66;;;4.35;74.33
84316;BME280;74496;52.236;5.164;2024-01-15T13:02:07;100242.34;;;4.40;75.28